sensor_id;sensor_type;location;lat;lon;timestamp;P1;durP1;ratioP1;P2;durP2;ratioP2
23588;SDS011;11972;48.078;11.876;2023-09-19T00:02:05;4.13;;;1.00;;
23588;SDS011;11972;48.078;11.876;2023-09-19T00:06:06;1.38;;;0.70;;
23588;SDS011;11972;48.078;11.876;2023-09-19T00:10:07;4.82;;;0.90;;
23588;SDS011;11972;48.078;11.876;2023-09-19T00:14:09;1.63;;;0.60;;
23588;SDS011;11972;48.078;11.876;2023-09-19T00:18:10;1.00;;;0.70;;
23588;SDS011;11972;48.078;11.876;2023-09-19T00:22:11;1.15;;;0.68;;
23588;SDS011;11972;48.078;11.876;2023-09-19T00:26:13;1.95;;;0.60;;
23588;SDS011;11972;48.078;11.876;2023-09-19T00:30:14;1.45;;;0.60;;
23588;SDS011;11972;48.078;11.876;2023-09-19T00:34:15;2.55;;;1.00;;
23588;SDS011;11972;48.078;11.876;2023-09-19T00:38:16;2.17;;;0.60;;
23588;SDS011;11972;48.078;11.876;2023-09-19T00:42:19;1.75;;;0.75;;
23588;SDS011;11972;48.078;11.876;2023-09-19T00:46:21;2.42;;;0.70;;
23588;SDS011;11972;48.078;11.876;2023-09-19T00:50:22;3.45;;;0.80;;
23588;SDS011;11972;48.078;11.876;2023-09-19T00:54:24;2.70;;;0.80;;
23588;SDS011;11972;48.078;11.876;2023-09-19T00:58:25;2.45;;;0.80;;
23588;SDS011;11972;48.078;11.876;2023-09-19T01:02:32;0.93;;;0.60;;
23588;SDS011;11972;48.078;11.876;2023-09-19T01:06:33;3.22;;;1.08;;
23588;SDS011;11972;48.078;11.876;2023-09-19T01:10:34;1.48;;;0.73;;
23588;SDS011;11972;48.078;11.876;2023-09-19T01:14:45;1.17;;;0.57;;
23588;SDS011;11972;48.078;11.876;2023-09-19T01:23:21;3.15;;;0.60;;
23588;SDS011;11972;48.078;11.876;2023-09-19T01:27:43;2.78;;;0.70;;
23588;SDS011;11972;48.078;11.876;2023-09-19T01:32:06;2.15;;;0.77;;
23588;SDS011;11972;48.078;11.876;2023-09-19T01:36:09;2.28;;;0.63;;
23588;SDS011;11972;48.078;11.876;2023-09-19T01:40:10;0.67;;;0.50;;
23588;SDS011;11972;48.078;11.876;2023-09-19T01:44:19;1.83;;;0.60;;
23588;SDS011;11972;48.078;11.876;2023-09-19T01:48:32;1.00;;;0.60;;
23588;SDS011;11972;48.078;11.876;2023-09-19T01:52:49;0.80;;;0.50;;
23588;SDS011;11972;48.078;11.876;2023-09-19T02:01:15;2.83;;;0.68;;
23588;SDS011;11972;48.078;11.876;2023-09-19T02:05:22;2.05;;;0.75;;
23588;SDS011;11972;48.078;11.876;2023-09-19T02:09:24;1.50;;;0.47;;
23588;SDS011;11972;48.078;11.876;2023-09-19T02:13:25;3.25;;;0.80;;
23588;SDS011;11972;48.078;11.876;2023-09-19T02:17:26;1.90;;;0.70;;
23588;SDS011;11972;48.078;11.876;2023-09-19T02:21:27;1.50;;;0.53;;
23588;SDS011;11972;48.078;11.876;2023-09-19T02:25:29;2.03;;;0.80;;
23588;SDS011;11972;48.078;11.876;2023-09-19T02:29:31;3.03;;;0.90;;
23588;SDS011;11972;48.078;11.876;2023-09-19T02:33:34;3.05;;;0.60;;
23588;SDS011;11972;48.078;11.876;2023-09-19T02:37:35;1.88;;;0.60;;
23588;SDS011;11972;48.078;11.876;2023-09-19T02:41:36;0.82;;;0.60;;
23588;SDS011;11972;48.078;11.876;2023-09-19T02:45:36;1.08;;;0.70;;
23588;SDS011;11972;48.078;11.876;2023-09-19T02:49:36;0.80;;;0.80;;
23588;SDS011;11972;48.078;11.876;2023-09-19T02:53:37;2.05;;;0.60;;
23588;SDS011;11972;48.078;11.876;2023-09-19T02:57:38;1.23;;;0.80;;
23588;SDS011;11972;48.078;11.876;2023-09-19T03:01:42;1.77;;;0.70;;
23588;SDS011;11972;48.078;11.876;2023-09-19T03:05:43;1.15;;;0.80;;
23588;SDS011;11972;48.078;11.876;2023-09-19T03:09:47;1.17;;;0.80;;
23588;SDS011;11972;48.078;11.876;2023-09-19T03:13:51;1.43;;;0.70;;
23588;SDS011;11972;48.078;11.876;2023-09-19T03:17:54;2.50;;;0.95;;
23588;SDS011;11972;48.078;11.876;2023-09-19T03:21:54;2.15;;;0.70;;
23588;SDS011;11972;48.078;11.876;2023-09-19T03:25:56;1.30;;;0.70;;
23588;SDS011;11972;48.078;11.876;2023-09-19T03:29:57;1.02;;;0.70;;
23588;SDS011;11972;48.078;11.876;2023-09-19T03:33:58;1.42;;;0.75;;
23588;SDS011;11972;48.078;11.876;2023-09-19T03:37:58;2.50;;;0.98;;
23588;SDS011;11972;48.078;11.876;2023-09-19T03:41:58;1.20;;;0.90;;
23588;SDS011;11972;48.078;11.876;2023-09-19T03:46:02;4.05;;;0.80;;
23588;SDS011;11972;48.078;11.876;2023-09-19T03:50:05;1.60;;;0.93;;
23588;SDS011;11972;48.078;11.876;2023-09-19T03:54:07;5.35;;;1.30;;
23588;SDS011;11972;48.078;11.876;2023-09-19T03:58:08;1.13;;;0.80;;
23588;SDS011;11972;48.078;11.876;2023-09-19T04:02:08;1.25;;;0.70;;
23588;SDS011;11972;48.078;11.876;2023-09-19T04:06:21;2.03;;;0.90;;
23588;SDS011;11972;48.078;11.876;2023-09-19T04:10:22;2.35;;;1.13;;
23588;SDS011;11972;48.078;11.876;2023-09-19T04:14:22;1.40;;;0.70;;
23588;SDS011;11972;48.078;11.876;2023-09-19T04:18:23;2.13;;;1.30;;
23588;SDS011;11972;48.078;11.876;2023-09-19T04:22:23;2.75;;;1.00;;
23588;SDS011;11972;48.078;11.876;2023-09-19T04:26:24;2.17;;;0.85;;
23588;SDS011;11972;48.078;11.876;2023-09-19T04:30:26;2.65;;;0.90;;
23588;SDS011;11972;48.078;11.876;2023-09-19T04:34:27;2.17;;;1.17;;
23588;SDS011;11972;48.078;11.876;2023-09-19T04:38:27;2.80;;;1.30;;
23588;SDS011;11972;48.078;11.876;2023-09-19T04:42:29;1.77;;;0.98;;
23588;SDS011;11972;48.078;11.876;2023-09-19T04:46:30;2.28;;;0.90;;
23588;SDS011;11972;48.078;11.876;2023-09-19T04:50:30;1.20;;;1.00;;
23588;SDS011;11972;48.078;11.876;2023-09-19T04:54:31;2.35;;;1.00;;
23588;SDS011;11972;48.078;11.876;2023-09-19T04:58:31;1.00;;;0.80;;
23588;SDS011;11972;48.078;11.876;2023-09-19T05:02:31;1.20;;;0.90;;
23588;SDS011;11972;48.078;11.876;2023-09-19T05:06:32;1.15;;;0.80;;
23588;SDS011;11972;48.078;11.876;2023-09-19T05:10:35;1.33;;;0.82;;
23588;SDS011;11972;48.078;11.876;2023-09-19T05:14:37;1.98;;;0.90;;
23588;SDS011;11972;48.078;11.876;2023-09-19T05:18:38;1.67;;;0.90;;
23588;SDS011;11972;48.078;11.876;2023-09-19T05:22:38;1.60;;;0.93;;
23588;SDS011;11972;48.078;11.876;2023-09-19T05:26:40;1.30;;;1.10;;
23588;SDS011;11972;48.078;11.876;2023-09-19T05:30:41;3.13;;;1.83;;
23588;SDS011;11972;48.078;11.876;2023-09-19T05:34:43;1.63;;;1.17;;
23588;SDS011;11972;48.078;11.876;2023-09-19T05:38:43;2.23;;;0.80;;
23588;SDS011;11972;48.078;11.876;2023-09-19T05:42:44;1.17;;;0.77;;
23588;SDS011;11972;48.078;11.876;2023-09-19T05:46:45;1.75;;;0.73;;
23588;SDS011;11972;48.078;11.876;2023-09-19T05:50:48;0.70;;;0.60;;
23588;SDS011;11972;48.078;11.876;2023-09-19T05:54:51;2.05;;;0.55;;
23588;SDS011;11972;48.078;11.876;2023-09-19T05:58:51;1.10;;;0.83;;
23588;SDS011;11972;48.078;11.876;2023-09-19T06:02:55;0.70;;;0.70;;
23588;SDS011;11972;48.078;11.876;2023-09-19T06:06:57;1.50;;;0.50;;
23588;SDS011;11972;48.078;11.876;2023-09-19T06:10:58;1.60;;;0.50;;
23588;SDS011;11972;48.078;11.876;2023-09-19T06:14:59;1.48;;;0.70;;
23588;SDS011;11972;48.078;11.876;2023-09-19T06:18:59;1.50;;;0.67;;
23588;SDS011;11972;48.078;11.876;2023-09-19T06:23:00;1.00;;;0.50;;
23588;SDS011;11972;48.078;11.876;2023-09-19T06:27:03;1.13;;;0.60;;
23588;SDS011;11972;48.078;11.876;2023-09-19T06:31:04;1.75;;;1.20;;
23588;SDS011;11972;48.078;11.876;2023-09-19T06:35:10;15.88;;;6.40;;
23588;SDS011;11972;48.078;11.876;2023-09-19T06:39:11;1.35;;;0.60;;
23588;SDS011;11972;48.078;11.876;2023-09-19T06:43:12;1.55;;;0.45;;
23588;SDS011;11972;48.078;11.876;2023-09-19T06:47:12;1.02;;;0.60;;
23588;SDS011;11972;48.078;11.876;2023-09-19T06:51:13;1.38;;;0.50;;
23588;SDS011;11972;48.078;11.876;2023-09-19T06:55:16;1.30;;;0.60;;
23588;SDS011;11972;48.078;11.876;2023-09-19T06:59:17;0.85;;;0.60;;
23588;SDS011;11972;48.078;11.876;2023-09-19T07:03:17;1.73;;;0.60;;
23588;SDS011;11972;48.078;11.876;2023-09-19T07:07:21;0.55;;;0.40;;
23588;SDS011;11972;48.078;11.876;2023-09-19T07:11:21;0.50;;;0.40;;
23588;SDS011;11972;48.078;11.876;2023-09-19T07:15:22;0.73;;;0.40;;
23588;SDS011;11972;48.078;11.876;2023-09-19T07:19:24;2.72;;;0.50;;
23588;SDS011;11972;48.078;11.876;2023-09-19T07:23:25;1.85;;;0.60;;
23588;SDS011;11972;48.078;11.876;2023-09-19T07:27:26;1.38;;;0.60;;
23588;SDS011;11972;48.078;11.876;2023-09-19T07:31:26;0.85;;;0.50;;
23588;SDS011;11972;48.078;11.876;2023-09-19T07:35:27;0.70;;;0.40;;
23588;SDS011;11972;48.078;11.876;2023-09-19T07:39:27;0.77;;;0.43;;
23588;SDS011;11972;48.078;11.876;2023-09-19T07:43:28;0.52;;;0.43;;
23588;SDS011;11972;48.078;11.876;2023-09-19T07:47:28;0.88;;;0.60;;
23588;SDS011;11972;48.078;11.876;2023-09-19T07:51:30;2.15;;;0.52;;
23588;SDS011;11972;48.078;11.876;2023-09-19T07:55:30;1.00;;;0.60;;
23588;SDS011;11972;48.078;11.876;2023-09-19T07:59:31;0.80;;;0.60;;
23588;SDS011;11972;48.078;11.876;2023-09-19T08:03:32;2.33;;;0.40;;
23588;SDS011;11972;48.078;11.876;2023-09-19T08:07:33;1.30;;;0.60;;
23588;SDS011;11972;48.078;11.876;2023-09-19T08:11:33;1.43;;;0.47;;
23588;SDS011;11972;48.078;11.876;2023-09-19T08:15:33;0.90;;;0.53;;
23588;SDS011;11972;48.078;11.876;2023-09-19T08:19:34;1.90;;;0.50;;
23588;SDS011;11972;48.078;11.876;2023-09-19T08:23:34;0.82;;;0.55;;
23588;SDS011;11972;48.078;11.876;2023-09-19T08:27:35;0.65;;;0.50;;
23588;SDS011;11972;48.078;11.876;2023-09-19T08:31:36;1.52;;;0.40;;
23588;SDS011;11972;48.078;11.876;2023-09-19T08:35:36;1.42;;;0.40;;
23588;SDS011;11972;48.078;11.876;2023-09-19T08:39:39;2.47;;;0.70;;
23588;SDS011;11972;48.078;11.876;2023-09-19T08:43:40;0.50;;;0.50;;
23588;SDS011;11972;48.078;11.876;2023-09-19T08:47:42;0.33;;;0.30;;
23588;SDS011;11972;48.078;11.876;2023-09-19T08:51:54;0.93;;;0.50;;
23588;SDS011;11972;48.078;11.876;2023-09-19T08:56:06;0.57;;;0.40;;
23588;SDS011;11972;48.078;11.876;2023-09-19T09:00:10;1.00;;;0.50;;
23588;SDS011;11972;48.078;11.876;2023-09-19T09:04:17;1.02;;;0.38;;
23588;SDS011;11972;48.078;11.876;2023-09-19T09:08:19;0.65;;;0.50;;
23588;SDS011;11972;48.078;11.876;2023-09-19T09:12:21;0.57;;;0.50;;
23588;SDS011;11972;48.078;11.876;2023-09-19T09:16:23;0.88;;;0.50;;
23588;SDS011;11972;48.078;11.876;2023-09-19T09:20:25;0.60;;;0.50;;
23588;SDS011;11972;48.078;11.876;2023-09-19T09:24:29;0.60;;;0.40;;
23588;SDS011;11972;48.078;11.876;2023-09-19T09:28:31;0.45;;;0.30;;
23588;SDS011;11972;48.078;11.876;2023-09-19T09:32:33;0.75;;;0.40;;
23588;SDS011;11972;48.078;11.876;2023-09-19T09:36:36;0.50;;;0.40;;
23588;SDS011;11972;48.078;11.876;2023-09-19T09:40:48;2.65;;;0.50;;
23588;SDS011;11972;48.078;11.876;2023-09-19T09:49:22;1.58;;;0.35;;
23588;SDS011;11972;48.078;11.876;2023-09-19T09:53:32;1.67;;;0.50;;
23588;SDS011;11972;48.078;11.876;2023-09-19T09:57:32;1.92;;;0.43;;
23588;SDS011;11972;48.078;11.876;2023-09-19T10:01:46;0.60;;;0.47;;
23588;SDS011;11972;48.078;11.876;2023-09-19T10:05:47;0.90;;;0.50;;
23588;SDS011;11972;48.078;11.876;2023-09-19T10:09:55;1.17;;;0.40;;
23588;SDS011;11972;48.078;11.876;2023-09-19T10:14:04;1.60;;;0.50;;
23588;SDS011;11972;48.078;11.876;2023-09-19T10:18:10;0.95;;;0.50;;
23588;SDS011;11972;48.078;11.876;2023-09-19T10:22:10;1.83;;;0.40;;
23588;SDS011;11972;48.078;11.876;2023-09-19T10:26:17;1.52;;;0.70;;
23588;SDS011;11972;48.078;11.876;2023-09-19T10:30:17;1.48;;;0.60;;
23588;SDS011;11972;48.078;11.876;2023-09-19T10:34:19;0.95;;;0.47;;
23588;SDS011;11972;48.078;11.876;2023-09-19T10:38:26;0.90;;;0.50;;
23588;SDS011;11972;48.078;11.876;2023-09-19T10:42:28;0.80;;;0.50;;
23588;SDS011;11972;48.078;11.876;2023-09-19T10:46:32;0.55;;;0.50;;
23588;SDS011;11972;48.078;11.876;2023-09-19T10:50:34;2.58;;;0.60;;
23588;SDS011;11972;48.078;11.876;2023-09-19T10:58:45;0.68;;;0.50;;
23588;SDS011;11972;48.078;11.876;2023-09-19T11:03:05;0.80;;;0.45;;
23588;SDS011;11972;48.078;11.876;2023-09-19T11:07:10;2.25;;;0.70;;
23588;SDS011;11972;48.078;11.876;2023-09-19T11:11:38;0.68;;;0.45;;
23588;SDS011;11972;48.078;11.876;2023-09-19T11:32:54;1.70;;;0.50;;
23588;SDS011;11972;48.078;11.876;2023-09-19T11:49:45;1.23;;;0.50;;
23588;SDS011;11972;48.078;11.876;2023-09-19T11:53:49;1.13;;;0.40;;
23588;SDS011;11972;48.078;11.876;2023-09-19T11:57:50;0.52;;;0.47;;
23588;SDS011;11972;48.078;11.876;2023-09-19T12:01:58;0.68;;;0.50;;
23588;SDS011;11972;48.078;11.876;2023-09-19T12:06:02;1.20;;;0.50;;
23588;SDS011;11972;48.078;11.876;2023-09-19T12:10:11;1.58;;;0.50;;
23588;SDS011;11972;48.078;11.876;2023-09-19T12:14:23;0.63;;;0.40;;
23588;SDS011;11972;48.078;11.876;2023-09-19T12:18:27;1.38;;;0.30;;
23588;SDS011;11972;48.078;11.876;2023-09-19T12:22:38;1.42;;;0.32;;
23588;SDS011;11972;48.078;11.876;2023-09-19T12:26:43;0.60;;;0.30;;
23588;SDS011;11972;48.078;11.876;2023-09-19T12:30:45;0.88;;;0.40;;
23588;SDS011;11972;48.078;11.876;2023-09-19T12:34:52;0.60;;;0.30;;
23588;SDS011;11972;48.078;11.876;2023-09-19T12:38:54;0.50;;;0.32;;
23588;SDS011;11972;48.078;11.876;2023-09-19T12:42:55;0.75;;;0.30;;
23588;SDS011;11972;48.078;11.876;2023-09-19T12:46:56;2.55;;;1.42;;
23588;SDS011;11972;48.078;11.876;2023-09-19T12:55:07;1.02;;;0.50;;
23588;SDS011;11972;48.078;11.876;2023-09-19T12:59:08;1.23;;;0.40;;
23588;SDS011;11972;48.078;11.876;2023-09-19T13:03:13;1.05;;;0.30;;
23588;SDS011;11972;48.078;11.876;2023-09-19T13:07:44;0.82;;;0.38;;
23588;SDS011;11972;48.078;11.876;2023-09-19T13:11:49;1.63;;;0.40;;
23588;SDS011;11972;48.078;11.876;2023-09-19T13:15:53;0.73;;;0.50;;
23588;SDS011;11972;48.078;11.876;2023-09-19T13:19:54;0.50;;;0.50;;
23588;SDS011;11972;48.078;11.876;2023-09-19T13:24:17;0.40;;;0.38;;
23588;SDS011;11972;48.078;11.876;2023-09-19T13:28:21;0.30;;;0.30;;
23588;SDS011;11972;48.078;11.876;2023-09-19T13:32:21;0.60;;;0.40;;
23588;SDS011;11972;48.078;11.876;2023-09-19T13:36:22;0.30;;;0.30;;
23588;SDS011;11972;48.078;11.876;2023-09-19T13:40:23;0.90;;;0.35;;
23588;SDS011;11972;48.078;11.876;2023-09-19T13:44:24;0.98;;;0.30;;
23588;SDS011;11972;48.078;11.876;2023-09-19T13:48:26;0.47;;;0.40;;
23588;SDS011;11972;48.078;11.876;2023-09-19T13:52:29;1.20;;;0.40;;
23588;SDS011;11972;48.078;11.876;2023-09-19T13:56:30;0.57;;;0.50;;
23588;SDS011;11972;48.078;11.876;2023-09-19T14:00:32;0.60;;;0.40;;
23588;SDS011;11972;48.078;11.876;2023-09-19T14:04:34;1.90;;;0.60;;
23588;SDS011;11972;48.078;11.876;2023-09-19T14:08:34;0.87;;;0.40;;
23588;SDS011;11972;48.078;11.876;2023-09-19T14:12:35;0.60;;;0.35;;
23588;SDS011;11972;48.078;11.876;2023-09-19T14:16:35;1.55;;;0.43;;
23588;SDS011;11972;48.078;11.876;2023-09-19T14:20:39;2.47;;;0.40;;
23588;SDS011;11972;48.078;11.876;2023-09-19T14:24:41;1.27;;;0.80;;
23588;SDS011;11972;48.078;11.876;2023-09-19T14:28:41;0.93;;;0.30;;
23588;SDS011;11972;48.078;11.876;2023-09-19T14:32:41;0.73;;;0.40;;
23588;SDS011;11972;48.078;11.876;2023-09-19T14:36:42;0.40;;;0.30;;
23588;SDS011;11972;48.078;11.876;2023-09-19T14:40:42;0.70;;;0.30;;
23588;SDS011;11972;48.078;11.876;2023-09-19T14:44:43;1.65;;;0.40;;
23588;SDS011;11972;48.078;11.876;2023-09-19T14:48:44;0.57;;;0.32;;
23588;SDS011;11972;48.078;11.876;2023-09-19T14:52:48;0.55;;;0.50;;
23588;SDS011;11972;48.078;11.876;2023-09-19T14:56:52;0.20;;;0.20;;
23588;SDS011;11972;48.078;11.876;2023-09-19T15:01:11;1.02;;;0.30;;
23588;SDS011;11972;48.078;11.876;2023-09-19T15:05:12;1.45;;;0.50;;
23588;SDS011;11972;48.078;11.876;2023-09-19T15:09:15;0.75;;;0.30;;
23588;SDS011;11972;48.078;11.876;2023-09-19T15:13:19;0.98;;;0.63;;
23588;SDS011;11972;48.078;11.876;2023-09-19T15:17:20;0.43;;;0.22;;
23588;SDS011;11972;48.078;11.876;2023-09-19T15:21:20;1.48;;;0.60;;
23588;SDS011;11972;48.078;11.876;2023-09-19T15:25:21;1.40;;;0.35;;
23588;SDS011;11972;48.078;11.876;2023-09-19T15:29:23;0.28;;;0.22;;
23588;SDS011;11972;48.078;11.876;2023-09-19T15:33:23;0.20;;;0.20;;
23588;SDS011;11972;48.078;11.876;2023-09-19T15:37:24;0.40;;;0.20;;
23588;SDS011;11972;48.078;11.876;2023-09-19T15:41:26;0.55;;;0.30;;
23588;SDS011;11972;48.078;11.876;2023-09-19T15:45:28;0.60;;;0.20;;
23588;SDS011;11972;48.078;11.876;2023-09-19T15:49:28;0.40;;;0.20;;
23588;SDS011;11972;48.078;11.876;2023-09-19T15:53:29;0.30;;;0.25;;
23588;SDS011;11972;48.078;11.876;2023-09-19T15:57:42;0.65;;;0.30;;
23588;SDS011;11972;48.078;11.876;2023-09-19T16:01:43;0.40;;;0.30;;
23588;SDS011;11972;48.078;11.876;2023-09-19T16:05:44;0.30;;;0.20;;
23588;SDS011;11972;48.078;11.876;2023-09-19T16:09:45;1.48;;;0.30;;
23588;SDS011;11972;48.078;11.876;2023-09-19T16:13:46;0.50;;;0.30;;
23588;SDS011;11972;48.078;11.876;2023-09-19T16:17:48;1.95;;;0.30;;
23588;SDS011;11972;48.078;11.876;2023-09-19T16:21:48;0.80;;;0.33;;
23588;SDS011;11972;48.078;11.876;2023-09-19T16:25:49;1.15;;;0.30;;
23588;SDS011;11972;48.078;11.876;2023-09-19T16:30:05;4.82;;;0.63;;
23588;SDS011;11972;48.078;11.876;2023-09-19T16:34:06;0.65;;;0.30;;
23588;SDS011;11972;48.078;11.876;2023-09-19T16:38:07;1.60;;;0.50;;
23588;SDS011;11972;48.078;11.876;2023-09-19T16:42:07;0.63;;;0.30;;
23588;SDS011;11972;48.078;11.876;2023-09-19T16:46:09;0.60;;;0.40;;
23588;SDS011;11972;48.078;11.876;2023-09-19T16:50:13;0.93;;;0.30;;
23588;SDS011;11972;48.078;11.876;2023-09-19T16:54:13;4.03;;;0.70;;
23588;SDS011;11972;48.078;11.876;2023-09-19T16:58:14;0.77;;;0.50;;
23588;SDS011;11972;48.078;11.876;2023-09-19T17:02:15;0.88;;;0.50;;
23588;SDS011;11972;48.078;11.876;2023-09-19T17:06:16;1.77;;;0.57;;
23588;SDS011;11972;48.078;11.876;2023-09-19T17:10:19;1.58;;;0.32;;
23588;SDS011;11972;48.078;11.876;2023-09-19T17:14:19;1.67;;;1.00;;
23588;SDS011;11972;48.078;11.876;2023-09-19T17:18:20;0.93;;;0.50;;
23588;SDS011;11972;48.078;11.876;2023-09-19T17:22:21;2.15;;;1.15;;
23588;SDS011;11972;48.078;11.876;2023-09-19T17:26:21;1.98;;;1.48;;
23588;SDS011;11972;48.078;11.876;2023-09-19T17:30:23;1.75;;;1.02;;
23588;SDS011;11972;48.078;11.876;2023-09-19T17:34:23;2.03;;;0.80;;
23588;SDS011;11972;48.078;11.876;2023-09-19T17:38:23;2.73;;;1.00;;
23588;SDS011;11972;48.078;11.876;2023-09-19T17:42:24;4.07;;;0.98;;
23588;SDS011;11972;48.078;11.876;2023-09-19T17:46:24;1.92;;;0.60;;
23588;SDS011;11972;48.078;11.876;2023-09-19T17:50:26;2.05;;;0.80;;
23588;SDS011;11972;48.078;11.876;2023-09-19T17:54:26;2.10;;;1.07;;
23588;SDS011;11972;48.078;11.876;2023-09-19T17:58:26;1.90;;;0.90;;
23588;SDS011;11972;48.078;11.876;2023-09-19T18:02:28;1.83;;;0.93;;
23588;SDS011;11972;48.078;11.876;2023-09-19T18:06:29;1.60;;;0.90;;
23588;SDS011;11972;48.078;11.876;2023-09-19T18:10:33;3.67;;;0.90;;
23588;SDS011;11972;48.078;11.876;2023-09-19T18:14:38;2.55;;;1.30;;
23588;SDS011;11972;48.078;11.876;2023-09-19T18:18:38;3.25;;;1.20;;
23588;SDS011;11972;48.078;11.876;2023-09-19T18:22:39;2.53;;;1.00;;
23588;SDS011;11972;48.078;11.876;2023-09-19T18:26:40;3.50;;;1.60;;
23588;SDS011;11972;48.078;11.876;2023-09-19T18:30:42;4.55;;;2.20;;
23588;SDS011;11972;48.078;11.876;2023-09-19T18:34:42;4.93;;;2.35;;
23588;SDS011;11972;48.078;11.876;2023-09-19T18:38:43;6.28;;;3.85;;
23588;SDS011;11972;48.078;11.876;2023-09-19T18:42:44;2.53;;;1.80;;
23588;SDS011;11972;48.078;11.876;2023-09-19T18:46:45;4.18;;;2.08;;
23588;SDS011;11972;48.078;11.876;2023-09-19T18:50:47;3.95;;;2.45;;
23588;SDS011;11972;48.078;11.876;2023-09-19T18:54:49;4.43;;;3.13;;
23588;SDS011;11972;48.078;11.876;2023-09-19T18:58:50;5.55;;;3.45;;
23588;SDS011;11972;48.078;11.876;2023-09-19T19:02:50;2.88;;;2.38;;
23588;SDS011;11972;48.078;11.876;2023-09-19T19:06:54;1.52;;;1.15;;
23588;SDS011;11972;48.078;11.876;2023-09-19T19:10:54;1.48;;;1.15;;
23588;SDS011;11972;48.078;11.876;2023-09-19T19:14:55;2.30;;;1.17;;
23588;SDS011;11972;48.078;11.876;2023-09-19T19:18:56;4.15;;;1.40;;
23588;SDS011;11972;48.078;11.876;2023-09-19T19:22:56;3.25;;;1.67;;
23588;SDS011;11972;48.078;11.876;2023-09-19T19:26:56;2.78;;;1.00;;
23588;SDS011;11972;48.078;11.876;2023-09-19T19:30:57;2.97;;;2.47;;
23588;SDS011;11972;48.078;11.876;2023-09-19T19:34:57;2.03;;;1.80;;
23588;SDS011;11972;48.078;11.876;2023-09-19T19:38:57;3.17;;;2.53;;
23588;SDS011;11972;48.078;11.876;2023-09-19T19:42:58;4.75;;;1.27;;
23588;SDS011;11972;48.078;11.876;2023-09-19T19:46:58;2.33;;;1.42;;
23588;SDS011;11972;48.078;11.876;2023-09-19T19:50:59;2.10;;;1.45;;
23588;SDS011;11972;48.078;11.876;2023-09-19T19:54:59;2.60;;;1.77;;
23588;SDS011;11972;48.078;11.876;2023-09-19T19:58:59;5.72;;;2.42;;
23588;SDS011;11972;48.078;11.876;2023-09-19T20:03:00;2.58;;;1.98;;
23588;SDS011;11972;48.078;11.876;2023-09-19T20:07:02;3.78;;;1.50;;
23588;SDS011;11972;48.078;11.876;2023-09-19T20:11:03;2.97;;;1.60;;
23588;SDS011;11972;48.078;11.876;2023-09-19T20:15:06;3.65;;;2.13;;
23588;SDS011;11972;48.078;11.876;2023-09-19T20:19:09;3.58;;;1.80;;
23588;SDS011;11972;48.078;11.876;2023-09-19T20:23:10;1.65;;;1.20;;
23588;SDS011;11972;48.078;11.876;2023-09-19T20:27:10;2.63;;;0.90;;
23588;SDS011;11972;48.078;11.876;2023-09-19T20:31:13;3.85;;;1.15;;
23588;SDS011;11972;48.078;11.876;2023-09-19T20:35:14;5.18;;;1.80;;
23588;SDS011;11972;48.078;11.876;2023-09-19T20:39:16;5.63;;;3.17;;
23588;SDS011;11972;48.078;11.876;2023-09-19T20:43:16;3.25;;;1.60;;
23588;SDS011;11972;48.078;11.876;2023-09-19T20:47:17;3.38;;;1.17;;
23588;SDS011;11972;48.078;11.876;2023-09-19T20:51:20;2.13;;;1.08;;
23588;SDS011;11972;48.078;11.876;2023-09-19T20:55:25;4.28;;;1.50;;
23588;SDS011;11972;48.078;11.876;2023-09-19T20:59:26;1.57;;;0.93;;
23588;SDS011;11972;48.078;11.876;2023-09-19T21:03:26;3.05;;;0.95;;
23588;SDS011;11972;48.078;11.876;2023-09-19T21:07:27;3.03;;;1.10;;
23588;SDS011;11972;48.078;11.876;2023-09-19T21:11:30;3.00;;;1.02;;
23588;SDS011;11972;48.078;11.876;2023-09-19T21:15:30;4.47;;;1.30;;
23588;SDS011;11972;48.078;11.876;2023-09-19T21:19:31;3.25;;;1.00;;
23588;SDS011;11972;48.078;11.876;2023-09-19T21:23:32;3.05;;;1.20;;
23588;SDS011;11972;48.078;11.876;2023-09-19T21:27:32;3.13;;;0.90;;
23588;SDS011;11972;48.078;11.876;2023-09-19T21:31:33;1.23;;;0.88;;
23588;SDS011;11972;48.078;11.876;2023-09-19T21:35:33;3.60;;;0.90;;
23588;SDS011;11972;48.078;11.876;2023-09-19T21:39:33;1.60;;;0.85;;
23588;SDS011;11972;48.078;11.876;2023-09-19T21:43:34;1.30;;;0.70;;
23588;SDS011;11972;48.078;11.876;2023-09-19T21:47:35;0.80;;;0.60;;
23588;SDS011;11972;48.078;11.876;2023-09-19T21:51:36;0.90;;;0.75;;
23588;SDS011;11972;48.078;11.876;2023-09-19T21:55:36;3.85;;;2.08;;
23588;SDS011;11972;48.078;11.876;2023-09-19T21:59:36;3.53;;;1.52;;
23588;SDS011;11972;48.078;11.876;2023-09-19T22:03:37;2.65;;;1.30;;
23588;SDS011;11972;48.078;11.876;2023-09-19T22:07:38;2.00;;;1.00;;
23588;SDS011;11972;48.078;11.876;2023-09-19T22:11:39;2.63;;;1.42;;
23588;SDS011;11972;48.078;11.876;2023-09-19T22:15:40;2.78;;;1.45;;
23588;SDS011;11972;48.078;11.876;2023-09-19T22:19:42;2.20;;;1.48;;
23588;SDS011;11972;48.078;11.876;2023-09-19T22:23:43;2.42;;;1.40;;
23588;SDS011;11972;48.078;11.876;2023-09-19T22:27:45;2.63;;;1.50;;
23588;SDS011;11972;48.078;11.876;2023-09-19T22:31:46;2.13;;;1.48;;
23588;SDS011;11972;48.078;11.876;2023-09-19T22:35:47;3.83;;;1.83;;
23588;SDS011;11972;48.078;11.876;2023-09-19T22:39:47;2.22;;;1.10;;
23588;SDS011;11972;48.078;11.876;2023-09-19T22:43:48;2.03;;;1.20;;
23588;SDS011;11972;48.078;11.876;2023-09-19T22:47:52;1.83;;;1.17;;
23588;SDS011;11972;48.078;11.876;2023-09-19T22:51:57;3.22;;;1.00;;
23588;SDS011;11972;48.078;11.876;2023-09-19T22:55:59;6.05;;;1.00;;
23588;SDS011;11972;48.078;11.876;2023-09-19T23:00:10;3.28;;;0.90;;
23588;SDS011;11972;48.078;11.876;2023-09-19T23:04:14;1.30;;;0.77;;
23588;SDS011;11972;48.078;11.876;2023-09-19T23:08:15;2.92;;;0.90;;
23588;SDS011;11972;48.078;11.876;2023-09-19T23:12:16;1.80;;;0.90;;
23588;SDS011;11972;48.078;11.876;2023-09-19T23:16:20;2.22;;;0.80;;
23588;SDS011;11972;48.078;11.876;2023-09-19T23:20:33;2.03;;;0.80;;
23588;SDS011;11972;48.078;11.876;2023-09-19T23:24:38;2.13;;;0.82;;
23588;SDS011;11972;48.078;11.876;2023-09-19T23:28:40;1.83;;;0.75;;
23588;SDS011;11972;48.078;11.876;2023-09-19T23:32:48;2.13;;;0.90;;
23588;SDS011;11972;48.078;11.876;2023-09-19T23:36:48;2.15;;;0.95;;
23588;SDS011;11972;48.078;11.876;2023-09-19T23:40:49;1.63;;;0.80;;
23588;SDS011;11972;48.078;11.876;2023-09-19T23:44:52;3.97;;;0.82;;
23588;SDS011;11972;48.078;11.876;2023-09-19T23:48:54;1.13;;;1.00;;
23588;SDS011;11972;48.078;11.876;2023-09-19T23:52:55;2.13;;;0.90;;
23588;SDS011;11972;48.078;11.876;2023-09-19T23:56:56;1.03;;;0.70;;
